createdAt,value
2019-03-06T00:13:06.962Z,37.28
2019-03-06T00:15:46.251Z,31.57
2019-03-06T00:18:24.965Z,41.37
2019-03-06T00:21:04.530Z,38.05
2019-03-06T00:23:44.643Z,32.98
2019-03-06T00:26:22.238Z,30.02
2019-03-06T00:29:00.578Z,30.40
2019-03-06T00:31:38.159Z,31.95
2019-03-06T00:34:17.647Z,38.50
2019-03-06T00:36:55.398Z,53.38
2019-03-06T00:39:45.024Z,28.90
2019-03-06T00:42:23.537Z,31.77
2019-03-06T00:45:03.862Z,34.03
2019-03-06T00:47:44.978Z,31.90
2019-03-06T00:50:24.082Z,31.77
2019-03-06T00:53:03.056Z,31.87
2019-03-06T00:55:43.150Z,37.03
2019-03-06T00:58:20.740Z,33.02
2019-03-06T01:01:00.205Z,30.30
2019-03-06T01:03:38.484Z,32.60
2019-03-06T01:06:17.503Z,33.18
2019-03-06T01:08:55.941Z,32.63
2019-03-06T01:11:35.039Z,31.25
2019-03-06T01:14:14.631Z,33.53
2019-03-06T01:16:55.405Z,30.12
2019-03-06T01:22:11.704Z,31.97
2019-03-06T01:24:49.211Z,30.45
2019-03-06T01:27:28.310Z,33.15
2019-03-06T01:30:08.233Z,32.45
2019-03-06T01:32:49.652Z,34.83
2019-03-06T01:35:59.319Z,36.98
2019-03-06T01:39:02.132Z,36.40
2019-03-06T01:42:01.210Z,33.58
2019-03-06T01:44:46.660Z,41.85
2019-03-06T01:47:24.311Z,32.90
2019-03-06T01:50:03.836Z,39.13
2019-03-06T01:52:42.202Z,32.08
2019-03-06T01:55:21.232Z,30.50
2019-03-06T01:57:59.506Z,33.85
2019-03-06T02:00:40.143Z,32.98
2019-03-06T02:03:19.617Z,33.00
2019-03-06T02:05:58.903Z,37.58
2019-03-06T02:08:37.682Z,34.98
2019-03-06T02:11:17.292Z,35.50
2019-03-06T02:13:55.621Z,35.35
2019-03-06T02:16:34.899Z,33.13
2019-03-06T02:19:13.546Z,32.50
2019-03-06T02:21:53.153Z,39.20
2019-03-06T02:24:34.147Z,32.90
2019-03-06T02:27:12.717Z,32.88
2019-03-06T02:29:50.681Z,33.83
2019-03-06T02:32:29.936Z,31.60
2019-03-06T02:35:08.243Z,27.42
2019-03-06T02:37:48.362Z,31.17
2019-03-06T02:40:30.169Z,33.25
2019-03-06T02:43:09.658Z,33.78
2019-03-06T02:45:49.817Z,26.35
2019-03-06T02:48:27.567Z,29.32
2019-03-06T02:51:06.050Z,31.97
2019-03-06T02:53:45.239Z,30.23
2019-03-06T02:56:24.322Z,30.62
2019-03-06T02:59:21.675Z,30.43
2019-03-06T03:02:17.587Z,36.13
2019-03-06T03:05:19.130Z,34.48
2019-03-06T03:07:57.168Z,29.57
2019-03-06T03:10:35.328Z,28.95
2019-03-06T03:13:13.342Z,30.82
2019-03-06T03:15:52.051Z,27.87
2019-03-06T03:18:30.656Z,29.50
2019-03-06T03:21:08.756Z,28.00
2019-03-06T03:23:48.199Z,29.75
2019-03-06T03:26:27.292Z,34.18
2019-03-06T03:29:05.681Z,31.35
2019-03-06T03:31:44.693Z,32.50
2019-03-06T03:34:22.980Z,29.65
2019-03-06T03:37:03.442Z,27.55
2019-03-06T03:39:45.861Z,26.05
2019-03-06T03:42:24.079Z,26.07
2019-03-06T03:45:01.713Z,23.55
2019-03-06T03:47:42.625Z,22.07
2019-03-06T03:50:20.216Z,25.23
2019-03-06T03:52:58.721Z,23.32
2019-03-06T03:55:37.833Z,26.30
2019-03-06T03:58:17.386Z,25.43
2019-03-06T04:00:55.900Z,22.22
2019-03-06T04:03:34.464Z,25.43
2019-03-06T04:06:13.028Z,23.77
2019-03-06T04:08:52.573Z,22.40
2019-03-06T04:11:30.900Z,24.00
2019-03-06T04:14:09.507Z,21.35
2019-03-06T04:16:48.724Z,26.50
2019-03-06T04:19:28.668Z,21.85
2019-03-06T04:22:06.983Z,21.37
2019-03-06T04:24:45.465Z,22.87
2019-03-06T04:27:24.924Z,25.40
2019-03-06T04:30:04.174Z,24.52
2019-03-06T04:32:44.038Z,24.60
2019-03-06T04:35:22.537Z,20.37
2019-03-06T04:38:02.021Z,22.73
2019-03-06T04:40:42.962Z,21.05
2019-03-06T04:43:23.303Z,29.48
2019-03-06T04:46:03.598Z,17.73
2019-03-06T04:48:43.532Z,18.67
2019-03-06T04:51:21.929Z,19.40
2019-03-06T04:54:00.822Z,25.17
2019-03-06T04:56:40.457Z,19.70
2019-03-06T04:59:22.418Z,22.37
2019-03-06T05:02:05.127Z,19.82
2019-03-06T05:04:43.150Z,26.77
2019-03-06T05:07:24.646Z,22.58
2019-03-06T05:10:02.809Z,21.87
2019-03-06T05:12:46.377Z,26.23
2019-03-06T05:15:23.968Z,22.80
2019-03-06T05:18:23.247Z,19.95
2019-03-06T05:21:02.916Z,22.32
2019-03-06T05:23:41.362Z,25.90
2019-03-06T05:26:19.911Z,26.85
2019-03-06T05:28:59.109Z,19.73
2019-03-06T05:31:38.560Z,21.33
2019-03-06T05:34:18.072Z,23.22
2019-03-06T05:37:39.747Z,32.45
2019-03-06T05:40:21.458Z,25.17
2019-03-06T05:43:03.462Z,27.17
2019-03-06T05:45:42.988Z,29.02
2019-03-06T05:48:21.278Z,26.23
2019-03-06T05:50:59.710Z,27.77
2019-03-06T05:53:38.719Z,22.80
2019-03-06T05:56:17.428Z,24.25
2019-03-06T05:58:55.300Z,22.32
2019-03-06T06:01:33.636Z,21.42
2019-03-06T06:04:13.322Z,23.00
2019-03-06T06:06:52.535Z,22.90
2019-03-06T06:09:30.590Z,22.45
2019-03-06T06:12:09.735Z,22.52
2019-03-06T06:14:48.062Z,22.40
2019-03-06T06:17:26.882Z,23.45
2019-03-06T06:20:04.860Z,24.30
2019-03-06T06:23:08.795Z,27.10
2019-03-06T06:25:47.000Z,22.67
2019-03-06T06:28:25.927Z,26.75
2019-03-06T06:31:04.191Z,26.35
2019-03-06T06:33:43.061Z,29.05
2019-03-06T06:36:22.859Z,28.38
2019-03-06T06:39:02.688Z,21.93
2019-03-06T06:41:42.910Z,22.52
2019-03-06T06:44:24.330Z,20.10
2019-03-06T06:47:02.710Z,24.95
2019-03-06T06:49:41.078Z,21.77
2019-03-06T06:53:22.867Z,20.60
2019-03-06T06:56:26.644Z,21.02
2019-03-06T06:59:40.130Z,24.80
2019-03-06T07:03:09.933Z,24.32
2019-03-06T07:06:10.607Z,25.88
2019-03-06T07:09:17.561Z,18.27
2019-03-06T07:12:26.105Z,26.77
2019-03-06T07:15:15.745Z,21.60
2019-03-06T07:18:15.085Z,23.15
2019-03-06T07:21:24.272Z,22.45
2019-03-06T07:24:23.311Z,23.30
2019-03-06T07:27:25.375Z,19.17
2019-03-06T07:30:20.351Z,24.57
2019-03-06T07:33:24.177Z,23.90
2019-03-06T07:36:20.999Z,25.55
2019-03-06T07:39:07.136Z,25.45
2019-03-06T07:42:04.789Z,29.92
2019-03-06T07:45:08.907Z,29.45
2019-03-06T07:48:20.488Z,19.87
2019-03-06T07:51:32.492Z,22.80
2019-03-06T07:54:26.967Z,20.48
2019-03-06T07:57:39.201Z,20.57
2019-03-06T08:03:45.990Z,26.57
2019-03-06T08:06:24.563Z,23.57
2019-03-06T08:09:03.789Z,23.20
2019-03-06T08:12:06.128Z,20.80
2019-03-06T08:15:01.853Z,21.35
2019-03-06T08:18:06.851Z,27.02
2019-03-06T08:21:15.353Z,27.65
2019-03-06T08:24:26.150Z,20.52
2019-03-06T08:27:05.901Z,21.00
2019-03-06T08:29:45.337Z,20.82
2019-03-06T08:32:31.961Z,24.47
2019-03-06T08:35:12.178Z,20.20
2019-03-06T08:37:51.686Z,23.75
2019-03-06T08:40:31.828Z,22.73
2019-03-06T08:43:10.403Z,28.23
2019-03-06T08:46:07.784Z,25.37
2019-03-06T08:48:59.723Z,16.25
2019-03-06T08:51:44.714Z,24.30
2019-03-06T08:54:37.316Z,25.82
2019-03-06T08:57:33.392Z,22.82
2019-03-06T09:00:37.401Z,28.55
2019-03-06T09:03:29.496Z,25.05
2019-03-06T09:06:39.618Z,23.92
2019-03-06T09:09:36.842Z,18.77
2019-03-06T09:12:40.028Z,20.75
2019-03-06T09:15:48.157Z,23.40
2019-03-06T09:18:44.718Z,23.47
2019-03-06T09:21:43.262Z,19.75
2019-03-06T09:24:38.295Z,16.52
2019-03-06T09:27:47.615Z,22.45
2019-03-06T09:30:38.526Z,18.98
2019-03-06T09:33:24.772Z,23.05
2019-03-06T09:36:21.317Z,26.20
2019-03-06T09:39:20.088Z,18.02
2019-03-06T09:42:18.478Z,19.30
2019-03-06T09:45:07.149Z,22.70
2019-03-06T09:48:01.377Z,22.42
2019-03-06T09:50:52.646Z,21.17
2019-03-06T09:53:48.396Z,28.12
2019-03-06T09:56:34.564Z,21.48
2019-03-06T09:59:31.965Z,19.05
2019-03-06T10:02:44.089Z,25.52
2019-03-06T10:05:34.560Z,22.75
2019-03-06T10:08:36.586Z,20.85
2019-03-06T10:11:32.458Z,21.05
2019-03-06T10:14:32.680Z,20.80
2019-03-06T10:17:19.203Z,22.32
2019-03-06T10:20:00.241Z,22.87
2019-03-06T10:22:43.017Z,20.85
2019-03-06T10:25:30.160Z,19.27
2019-03-06T10:28:06.307Z,21.27
2019-03-06T10:30:42.018Z,19.02
2019-03-06T10:33:20.882Z,19.07
2019-03-06T10:35:59.581Z,23.40
2019-03-06T10:38:38.922Z,22.55
2019-03-06T10:41:19.019Z,22.15
2019-03-06T10:43:58.206Z,20.32
2019-03-06T10:46:37.631Z,21.93
2019-03-06T10:49:18.444Z,23.25
2019-03-06T10:51:57.491Z,19.25
2019-03-06T10:54:44.265Z,17.77
2019-03-06T10:57:16.701Z,16.27
2019-03-06T10:59:54.832Z,22.15
2019-03-06T11:02:32.800Z,30.02
2019-03-06T11:05:27.563Z,26.62
2019-03-06T11:08:10.012Z,23.18
2019-03-06T11:10:49.989Z,19.82
2019-03-06T11:13:28.957Z,21.57
2019-03-06T11:16:09.643Z,23.38
2019-03-06T11:18:48.678Z,18.65
2019-03-06T11:21:28.367Z,20.97
2019-03-06T11:24:08.661Z,22.85
2019-03-06T11:26:48.729Z,15.93
2019-03-06T11:29:28.311Z,19.20
2019-03-06T11:32:08.657Z,18.75
2019-03-06T11:34:47.727Z,22.82
2019-03-06T11:37:28.130Z,21.05
2019-03-06T11:40:07.228Z,18.42
2019-03-06T11:42:47.192Z,19.62
2019-03-06T11:45:25.937Z,18.60
2019-03-06T11:48:05.763Z,15.00
2019-03-06T11:50:45.942Z,17.15
2019-03-06T11:53:26.557Z,19.87
2019-03-06T11:56:06.375Z,18.90
2019-03-06T11:58:47.163Z,17.85
2019-03-06T12:01:30.191Z,16.40
2019-03-06T12:04:09.916Z,24.85
2019-03-06T12:06:49.726Z,17.75
2019-03-06T12:09:35.574Z,18.65
2019-03-06T12:12:14.401Z,25.15
2019-03-06T12:14:54.296Z,25.37
2019-03-06T12:17:33.283Z,24.12
2019-03-06T12:20:13.304Z,28.25
2019-03-06T12:22:52.874Z,23.85
2019-03-06T12:25:33.560Z,23.95
2019-03-06T12:28:13.633Z,31.15
2019-03-06T12:30:53.577Z,21.97
2019-03-06T12:33:45.205Z,21.17
2019-03-06T12:36:25.200Z,22.45
2019-03-06T12:39:05.538Z,22.90
2019-03-06T12:41:46.537Z,21.23
2019-03-06T12:44:27.015Z,23.75
2019-03-06T12:47:06.905Z,22.70
2019-03-06T12:49:46.294Z,23.32
2019-03-06T12:52:26.978Z,19.55
2019-03-06T12:55:04.702Z,23.02
2019-03-06T12:57:45.000Z,24.20
2019-03-06T13:00:30.018Z,25.02
2019-03-06T13:03:11.065Z,30.00
2019-03-06T13:05:50.039Z,33.67
2019-03-06T13:08:32.759Z,59.25
2019-03-06T13:11:12.531Z,70.65
2019-03-06T13:13:52.617Z,70.17
2019-03-06T13:16:32.079Z,50.92
2019-03-06T13:19:11.918Z,84.80
2019-03-06T13:21:51.075Z,62.93
2019-03-06T13:24:32.739Z,43.17
2019-03-06T13:27:14.687Z,30.32
2019-03-06T13:29:55.913Z,30.17
2019-03-06T13:32:53.996Z,25.75
2019-03-06T13:35:41.359Z,29.35
2019-03-06T13:38:35.995Z,32.03
2019-03-06T13:41:32.155Z,30.35
2019-03-06T13:44:11.444Z,31.55
2019-03-06T13:46:58.617Z,30.08
2019-03-06T13:49:38.445Z,38.40
2019-03-06T13:52:17.965Z,41.68
2019-03-06T13:54:58.664Z,29.87
2019-03-06T13:57:38.722Z,22.55
2019-03-06T14:00:35.885Z,26.05
2019-03-06T14:03:33.116Z,22.52
2019-03-06T14:06:12.789Z,24.45
2019-03-06T14:09:00.101Z,21.57
2019-03-06T14:11:43.936Z,27.40
2019-03-06T14:14:22.757Z,23.30
2019-03-06T14:17:02.018Z,23.38
2019-03-06T14:19:42.620Z,20.32
2019-03-06T14:22:21.143Z,22.50
2019-03-06T14:25:00.253Z,15.18
2019-03-06T14:27:38.354Z,16.02
2019-03-06T14:30:18.565Z,17.95
2019-03-06T14:32:58.778Z,17.52
2019-03-06T14:35:38.203Z,23.35
2019-03-06T14:38:16.676Z,18.45
2019-03-06T14:40:57.108Z,24.87
2019-03-06T14:43:35.806Z,24.70
2019-03-06T14:46:16.836Z,21.50
2019-03-06T14:48:54.950Z,19.55
2019-03-06T14:51:33.263Z,17.48
2019-03-06T14:54:12.606Z,22.10
2019-03-06T14:56:51.158Z,20.65
2019-03-06T14:59:29.387Z,20.05
2019-03-06T15:02:07.699Z,21.37
2019-03-06T15:04:47.136Z,19.67
2019-03-06T15:07:26.579Z,17.25
2019-03-06T15:10:04.522Z,23.25
2019-03-06T15:15:39.522Z,15.83
2019-03-06T15:18:18.884Z,17.07
2019-03-06T15:20:56.927Z,23.80
2019-03-06T15:23:36.584Z,21.00
2019-03-06T15:26:15.036Z,22.45
2019-03-06T15:28:53.742Z,21.60
2019-03-06T15:31:32.177Z,18.82
2019-03-06T15:34:10.719Z,17.98
2019-03-06T15:36:49.854Z,19.67
2019-03-06T15:39:45.764Z,17.45
2019-03-06T15:42:19.628Z,21.80
2019-03-06T15:44:58.385Z,19.73
2019-03-06T15:47:38.871Z,19.50
2019-03-06T15:50:17.330Z,18.42
2019-03-06T15:52:55.950Z,21.48
2019-03-06T15:55:34.222Z,21.95
2019-03-06T15:58:13.582Z,22.15
2019-03-06T16:00:53.512Z,21.33
2019-03-06T16:03:31.547Z,17.92
2019-03-06T16:06:19.742Z,22.13
2019-03-06T16:08:51.840Z,18.73
2019-03-06T16:11:30.269Z,16.75
2019-03-06T16:14:12.771Z,18.62
2019-03-06T16:19:27.755Z,16.57
2019-03-06T16:22:06.253Z,18.20
2019-03-06T16:24:44.203Z,16.37
2019-03-06T16:27:22.467Z,17.90
2019-03-06T16:30:01.238Z,14.55
2019-03-06T16:32:41.298Z,19.15
2019-03-06T16:35:19.959Z,18.48
2019-03-06T16:37:58.243Z,18.98
2019-03-06T16:40:38.513Z,19.20
2019-03-06T16:43:17.564Z,19.37
2019-03-06T16:45:55.554Z,19.70
2019-03-06T16:48:40.835Z,17.77
2019-03-06T16:51:20.769Z,18.92
2019-03-06T16:53:58.512Z,18.85
2019-03-06T16:56:37.434Z,17.17
2019-03-06T16:59:16.155Z,20.52
2019-03-06T17:01:55.578Z,19.75
2019-03-06T17:04:33.746Z,18.02
2019-03-06T17:07:12.514Z,19.62
2019-03-06T17:09:50.739Z,19.73
2019-03-06T17:12:31.565Z,17.32
2019-03-06T17:15:09.807Z,16.75
2019-03-06T17:17:47.864Z,23.73
2019-03-06T17:20:27.940Z,21.05
2019-03-06T17:23:07.546Z,15.23
2019-03-06T17:25:47.400Z,21.00
2019-03-06T17:28:28.711Z,16.90
2019-03-06T17:31:07.408Z,19.62
2019-03-06T17:33:45.734Z,18.75
2019-03-06T17:36:24.265Z,19.35
2019-03-06T17:39:03.014Z,18.20
2019-03-06T17:41:43.056Z,16.60
2019-03-06T17:44:22.867Z,21.12
2019-03-06T17:47:01.833Z,17.12
2019-03-06T17:49:40.192Z,14.50
2019-03-06T17:52:18.683Z,19.27
2019-03-06T17:54:57.409Z,17.00
2019-03-06T17:57:35.307Z,17.87
2019-03-06T18:00:19.449Z,17.00
2019-03-06T18:02:58.387Z,19.15
2019-03-06T18:05:39.135Z,22.65
2019-03-06T18:08:17.337Z,17.70
2019-03-06T18:10:56.072Z,20.12
2019-03-06T18:13:34.613Z,16.07
2019-03-06T18:16:14.590Z,19.02
2019-03-06T18:18:53.199Z,15.80
2019-03-06T18:21:31.306Z,15.80
2019-03-06T18:30:51.540Z,18.75
2019-03-06T18:33:29.624Z,16.20
2019-03-06T18:36:07.997Z,18.23
2019-03-06T18:38:46.556Z,20.37
2019-03-06T18:41:25.562Z,17.65
2019-03-06T18:44:03.866Z,19.40
2019-03-06T18:46:43.940Z,17.10
2019-03-06T18:49:21.944Z,17.95
2019-03-06T18:52:00.891Z,24.52
2019-03-06T18:54:39.774Z,19.30
2019-03-06T18:57:18.286Z,18.73
2019-03-06T18:59:56.251Z,20.57
2019-03-06T19:02:36.413Z,17.73
2019-03-06T19:05:14.398Z,20.17
2019-03-06T19:07:52.514Z,18.65
2019-03-06T19:10:31.397Z,14.87
2019-03-06T19:13:12.385Z,21.62
2019-03-06T19:15:50.446Z,17.12
2019-03-06T19:18:30.240Z,18.30
2019-03-06T19:21:08.310Z,17.02
2019-03-06T19:23:48.271Z,16.82
2019-03-06T19:26:26.248Z,18.65
2019-03-06T19:29:05.520Z,17.10
2019-03-06T19:31:44.293Z,18.45
2019-03-06T19:34:22.571Z,18.35
2019-03-06T19:37:01.686Z,18.17
2019-03-06T19:39:40.138Z,19.25
2019-03-06T19:42:17.767Z,21.90
2019-03-06T19:44:56.840Z,17.60
2019-03-06T19:47:35.296Z,18.82
2019-03-06T19:50:17.392Z,17.32
2019-03-06T19:52:55.731Z,17.40
2019-03-06T19:55:36.336Z,21.05
2019-03-06T19:58:14.457Z,18.82
2019-03-06T20:00:52.575Z,23.07
2019-03-06T20:03:34.135Z,21.20
2019-03-06T20:06:13.261Z,20.55
2019-03-06T20:08:53.260Z,28.20
2019-03-06T20:11:31.758Z,27.32
2019-03-06T20:14:09.754Z,26.07
2019-03-06T20:16:48.906Z,25.10
2019-03-06T20:19:27.257Z,22.10
2019-03-06T20:22:07.115Z,23.20
2019-03-06T20:24:50.619Z,24.32
2019-03-06T20:27:30.132Z,24.02
2019-03-06T20:30:08.595Z,26.15
2019-03-06T20:32:48.519Z,25.02
2019-03-06T20:35:27.251Z,21.97
2019-03-06T20:38:06.095Z,24.55
2019-03-06T20:40:44.408Z,19.30
2019-03-06T20:43:23.003Z,17.87
2019-03-06T20:46:01.280Z,14.40
2019-03-06T20:48:41.176Z,18.98
2019-03-06T20:51:19.357Z,18.55
2019-03-06T20:53:57.987Z,18.48
2019-03-06T20:56:36.276Z,16.82
2019-03-06T20:59:14.921Z,19.70
2019-03-06T21:01:53.316Z,18.85
2019-03-06T21:04:32.474Z,16.17
2019-03-06T21:07:11.475Z,18.77
2019-03-06T21:09:50.907Z,18.37
2019-03-06T21:12:31.601Z,22.22
2019-03-06T21:15:10.596Z,19.85
2019-03-06T21:17:49.067Z,21.33
2019-03-06T21:20:28.407Z,17.40
2019-03-06T21:23:07.061Z,22.52
2019-03-06T21:25:47.172Z,18.67
2019-03-06T21:28:25.390Z,20.52
2019-03-06T21:31:04.364Z,18.02
2019-03-06T21:33:43.755Z,24.30
2019-03-06T21:36:21.752Z,22.70
2019-03-06T21:38:59.792Z,18.85
2019-03-06T21:41:38.839Z,18.00
2019-03-06T21:44:18.543Z,23.73
2019-03-06T21:46:57.312Z,23.45
2019-03-06T21:49:35.266Z,24.12
2019-03-06T21:52:14.170Z,19.42
2019-03-06T21:54:52.237Z,21.23
2019-03-06T21:57:32.486Z,18.57
2019-03-06T22:00:11.586Z,22.45
2019-03-06T22:02:51.425Z,21.87
2019-03-06T22:05:30.228Z,19.90
2019-03-06T22:08:08.829Z,22.55
2019-03-06T22:10:46.987Z,20.50
2019-03-06T22:13:26.037Z,23.80
2019-03-06T22:16:04.841Z,20.15
2019-03-06T22:18:47.946Z,19.85
2019-03-06T22:21:28.136Z,21.82
2019-03-06T22:24:06.708Z,21.35
2019-03-06T22:26:44.642Z,16.60
2019-03-06T22:29:24.390Z,20.40
2019-03-06T22:32:02.677Z,20.15
2019-03-06T22:34:41.649Z,16.93
2019-03-06T22:37:20.250Z,22.82
2019-03-06T22:39:58.444Z,24.18
2019-03-06T22:42:37.580Z,23.95
2019-03-06T22:45:20.003Z,27.65
2019-03-06T22:47:57.459Z,23.92
2019-03-06T22:50:35.432Z,50.20
2019-03-06T22:53:15.639Z,45.60
2019-03-06T22:55:54.558Z,26.02
2019-03-06T22:58:32.167Z,28.67
2019-03-06T23:01:33.019Z,25.43
2019-03-06T23:04:11.539Z,27.17
2019-03-06T23:06:51.099Z,22.60
2019-03-06T23:09:29.090Z,18.25
2019-03-06T23:12:08.122Z,18.55
2019-03-06T23:14:45.973Z,25.88
2019-03-06T23:17:26.300Z,23.38
2019-03-06T23:20:05.615Z,19.62
2019-03-06T23:22:43.940Z,21.62
2019-03-06T23:25:22.229Z,20.75
2019-03-06T23:28:01.748Z,22.52
2019-03-06T23:30:40.802Z,23.45
2019-03-06T23:33:20.261Z,22.10
2019-03-06T23:35:58.030Z,19.20
2019-03-06T23:38:36.886Z,19.95
2019-03-06T23:41:14.947Z,25.40
2019-03-06T23:43:52.577Z,23.67
2019-03-06T23:46:31.542Z,20.80
2019-03-06T23:49:11.294Z,22.90
2019-03-06T23:51:54.705Z,29.20
2019-03-06T23:54:33.361Z,23.12
2019-03-06T23:57:11.538Z,24.95
2019-03-06T23:59:50.711Z,29.55
